Augusta, Montana
Current Conditions -  °F | °C
As of 4:53 AM on Saturday 01 Nov 2014 (Local Time) from KGTF Reporting Station
Clear Clear  
Wind Chill: 33°   Ceiling: Unl
Heat Index: 37°   Visibility: 10mi
Dew Point: 31°   Wind: 5mph
Humidity: 79%   Direction: 240°WSW
Pressure: 29.69"   Gusts: NA
Location:  47.49°N, 112.4°W
Report Text: KGTF 011053Z 24004KT 10SM CLR 03/M01 A2969 RMK AO2 SLP053 T00281006
Loading
Personal Weather Stations






























Interactive Weather Map
Tropical Storm Tracking
New forecast layout! Learn more

10-Day Weather Forecast

Advertisements
Track Severe Weather on mobile